x

South Kodiak - 310nm Ssw Of Kodiak, Ak (46066) Wave Buoy

10:50pm - Fri 24th Feb 2017 All times are UTC.

  • Sig Wave height 12.5ft
  • Swell Direction
  • Peak Period 14s
  • Average Period 10s
  • Wind
    16mph, 20mph gusts
  • Sea Temp 39°f
  • Air Temp 40°f
  • Sea Pressure 1038.3mb

More Historic Weather Station data

Upgrade to MSW Pro to gain access to the past 30 days of data for over 8000 Wavebouys and Weather Stations around the globe.

Join Pro

Comparision Forecast

View Surf forecast
   
Fri 02/24 10:50pm 12.5ft 14s 10s 16 20 mph 1038.3mb 39f 40f
9:50pm 13ft 14s 10s 13 18 mph 1038.5mb 39f 40f
8:50pm 12ft 13s 9s 13 18 mph 1038.3mb 39f 40f
7:50pm 14ft 15s 10s 16 20 mph 1037.9mb 39f 40f
6:50pm 16ft 16s 11s 13 18 mph 1037.5mb 39f 39f
5:50pm 15ft 16s 11s 16 20 mph 1037mb 39f 39f
4:50pm 16.5ft 16s 11s 18 22 mph 1036.3mb 39f 39f
3:50pm 14ft 16s 10s 16 18 mph 1036.4mb 39f 39f
2:50pm 15ft 16s 11s 18 20 mph 1036.4mb 39f 39f
1:50pm 15ft 16s 11s 16 18 mph 1036.3mb 39f 39f
12:50pm 14.5ft 16s 10s 13 16 mph 1036.1mb 39f 39f
11:50am 15ft 16s 11s 18 22 mph 1035.9mb 39f 39f
10:50am 16.5ft 16s 11s 18 25 mph 1035.7mb 38f 39f
9:50am 15ft 16s 10s 16 20 mph 1035.6mb 38f 39f
8:50am 14ft 15s 10s 13 18 mph 1035.3mb 38f 39f
7:50am 13.5ft 15s 10s 13 18 mph 1035.2mb 38f 39f
6:50am 11ft 14s 9s 13 18 mph 1035.2mb 39f 38f
5:50am 13.5ft 14s 9s 13 18 mph 1035.4mb 39f 39f
4:50am 14.5ft 15s 10s 16 20 mph 1035mb 39f 39f
3:50am 13ft 14s 9s 16 20 mph 1034.7mb 39f 39f
2:50am 11.5ft 14s 8s 20 25 mph 1034.3mb 39f 39f
1:50am 12ft 14s 9s 18 22 mph 1034.3mb 39f 40f
12:50am 10.5ft 14s 8s 20 25 mph 1033.8mb 39f 40f
Thu 02/23 11:50pm 11ft 13s 9s 16 18 mph 1033.6mb 38f 41f
10:50pm 9ft 10s 7s 18 20 mph 1033.5mb 38f 41f
9:50pm 9ft 10s 7s 18 20 mph 1033.7mb 38f 41f
8:50pm 9ft 11s 7s 18 22 mph 1033.8mb 38f 40f
7:50pm 9.5ft 13s 7s 20 25 mph 1034mb 38f 38f
6:50pm 10ft 14s 8s 22 29 mph 1033.9mb 38f 38f
5:50pm 9.5ft 13s 8s 20 25 mph 1033.8mb 38f 37f
4:50pm 9ft 13s 8s 20 25 mph 1034.2mb 38f 37f
3:50pm 10ft 13s 8s 20 25 mph 1034.5mb 38f 37f
2:50pm 8.5ft 11s 8s 18 22 mph 1034.4mb 38f 37f
1:50pm 8ft 10s 7s 18 20 mph 1035.2mb 38f 37f
12:50pm 10.5ft 14s 8s 16 20 mph 1035.6mb 38f 37f
11:50am 9.5ft 14s 8s 18 20 mph 1035.5mb 38f 37f
10:50am 10ft 13s 8s 18 22 mph 1035.2mb 38f 37f
9:50am 8.5ft 14s 8s 13 16 mph 1035.4mb 38f 39f
8:50am 10ft 14s 8s 11 13 mph 1035.6mb 38f 39f
7:50am 10.5ft 14s 9s 11 16 mph 1035.9mb 38f 39f
6:50am 10ft 14s 9s 16 20 mph 1035.2mb 38f 39f
5:50am 11ft 15s 9s 16 18 mph 1034.2mb 38f 39f
4:50am 10ft 14s 9s 11 16 mph 1034mb 38f 39f
3:50am 11.5ft 15s 9s 13 18 mph 1034mb 38f 39f
2:50am 10.5ft 15s 9s 13 16 mph 1034.4mb 38f 39f
1:50am 10ft 15s 9s 11 16 mph 1034.8mb 38f 39f
12:50am 10ft 15s 9s 11 13 mph 1034.8mb 38f 39f
Wed 02/22 11:50pm 10ft 15s 8s 13 16 mph 1034.9mb 38f 39f
10:50pm 10.5ft 15s 9s 9 13 mph 1034.6mb 38f 39f
9:50pm 11.5ft 15s 9s 16 18 mph 1033.9mb 38f 39f
8:50pm 10.5ft 10s 8s 16 20 mph 1033.4mb 38f 39f
7:50pm 10ft 10s 8s 16 20 mph 1032.7mb 38f 39f
6:50pm 10.5ft 14s 8s 16 18 mph 1031.6mb 38f 39f
5:50pm 11.5ft 15s 9s 13 18 mph 1031.5mb 38f 39f
4:50pm 11ft 15s 9s 13 18 mph 1030.3mb 38f 39f
3:50pm 12ft 14s 9s 13 18 mph 1030mb 38f 39f
2:50pm 12.5ft 14s 9s 13 18 mph 1029.1mb 38f 39f
1:50pm 11ft 15s 8s 13 18 mph 1028.7mb 38f 39f
12:50pm 11.5ft 15s 9s 16 22 mph 1027.8mb 38f 39f
10:50am 12ft 15s 8s 18 20 mph 1025.9mb 38f 39f
9:50am 12.5ft 11s 8s 16 20 mph 1025mb 38f 39f
8:50am 13ft 16s 8s 16 18 mph 1024mb 38f 39f
7:50am 13.5ft 10s 8s 16 18 mph 1022.7mb 38f 39f
6:50am 14ft 10s 8s 16 20 mph 1021.4mb 38f 39f
5:50am 13ft 11s 8s 25 31 mph 1020mb 38f 40f
4:50am 12ft 8s 7s 27 34 mph 1019.5mb 38f 40f
3:50am 11.5ft 9s 7s 27 34 mph 1019.1mb 38f 40f
2:50am 12ft 8s 7s 29 34 mph 1018.7mb 38f 39f
1:50am 10.5ft 10s 7s 27 34 mph 1018.3mb 38f 40f
12:50am 10.5ft 9s 7s 27 31 mph 1018mb 38f 40f
Tue 02/21 11:50pm 11.5ft 9s 7s 27 34 mph 1017.8mb 38f 39f
10:50pm 10ft 8s 6s 27 34 mph 1017.8mb 38f 40f
9:50pm 10ft 8s 6s 27 31 mph 1018mb 38f 40f
8:50pm 9ft 7s 6s 27 31 mph 1017.7mb 38f 39f
7:50pm 9ft 7s 6s 27 34 mph 1017.1mb 38f 39f
6:50pm 8ft 6s 6s 29 34 mph 1016.7mb 38f 39f
5:50pm 7ft 6s 5s 27 34 mph 1016.4mb 38f 38f
4:50pm 6ft 6s 5s 25 31 mph 1016.5mb 38f 38f
3:50pm 6ft 6s 5s 27 31 mph 1016.4mb 38f 38f
2:50pm 5.5ft 5s 5s 22 29 mph 1016.8mb 38f 38f
1:50pm 4.5ft 5s 5s 22 27 mph 1016.9mb 38f 38f
12:50pm 4.5ft 8s 5s 22 25 mph 1017.6mb 38f 37f
11:50am 4ft 9s 5s 20 25 mph 1017.9mb 38f 37f
10:50am 4ft 8s 5s 18 20 mph 1018.5mb 38f 35f
9:50am 4ft 8s 6s 18 22 mph 1018.8mb 38f 34f
8:50am 4ft 7s 6s 16 18 mph 1019.1mb 38f 33f
7:50am 4.5ft 8s 6s 13 20 mph 1019.1mb 38f 32f
6:50am 4.5ft 9s 6s 11 13 mph 1019.4mb 38f 31f
5:50am 4.5ft 7s 6s 9 11 mph 1019.3mb 38f 31f
4:50am 5ft 7s 6s 7 9 mph 1019.4mb 38f 30f
3:50am 5ft 9s 6s 4 7 mph 1019.3mb 38f 30f
2:50am 5.5ft 8s 6s 2 4 mph 1019.2mb 38f 31f
1:50am 5ft 7s 6s 7 9 mph 1018.9mb 38f 31f
12:50am 5ft 8s 6s 4 7 mph 1018.9mb 38f 31f